sensor_id;sensor_type;location;lat;lon;timestamp;P1;durP1;ratioP1;P2;durP2;ratioP2
35961;SDS011;22044;48.298;10.008;2023-09-19T00:02:17;3.10;;;2.20;;
35961;SDS011;22044;48.298;10.008;2023-09-19T00:05:03;4.93;;;2.63;;
35961;SDS011;22044;48.298;10.008;2023-09-19T00:07:49;3.40;;;2.53;;
35961;SDS011;22044;48.298;10.008;2023-09-19T00:10:37;2.90;;;2.53;;
35961;SDS011;22044;48.298;10.008;2023-09-19T00:13:25;3.57;;;2.40;;
35961;SDS011;22044;48.298;10.008;2023-09-19T00:16:10;4.83;;;2.60;;
35961;SDS011;22044;48.298;10.008;2023-09-19T00:18:58;5.83;;;2.83;;
35961;SDS011;22044;48.298;10.008;2023-09-19T00:21:46;3.97;;;2.30;;
35961;SDS011;22044;48.298;10.008;2023-09-19T00:24:32;3.57;;;2.37;;
35961;SDS011;22044;48.298;10.008;2023-09-19T00:27:18;3.57;;;2.57;;
35961;SDS011;22044;48.298;10.008;2023-09-19T00:30:03;4.17;;;2.57;;
35961;SDS011;22044;48.298;10.008;2023-09-19T00:32:52;5.40;;;3.17;;
35961;SDS011;22044;48.298;10.008;2023-09-19T00:35:39;4.57;;;2.83;;
35961;SDS011;22044;48.298;10.008;2023-09-19T00:38:32;5.77;;;2.97;;
35961;SDS011;22044;48.298;10.008;2023-09-19T00:41:18;5.40;;;2.80;;
35961;SDS011;22044;48.298;10.008;2023-09-19T00:44:04;4.53;;;2.83;;
35961;SDS011;22044;48.298;10.008;2023-09-19T00:46:50;2.93;;;2.63;;
35961;SDS011;22044;48.298;10.008;2023-09-19T00:49:37;3.70;;;2.83;;
35961;SDS011;22044;48.298;10.008;2023-09-19T00:52:24;3.80;;;2.73;;
35961;SDS011;22044;48.298;10.008;2023-09-19T00:55:11;4.57;;;3.10;;
35961;SDS011;22044;48.298;10.008;2023-09-19T00:58:00;4.27;;;2.80;;
35961;SDS011;22044;48.298;10.008;2023-09-19T01:00:46;3.87;;;2.90;;
35961;SDS011;22044;48.298;10.008;2023-09-19T01:03:33;4.33;;;2.97;;
35961;SDS011;22044;48.298;10.008;2023-09-19T01:06:19;3.63;;;2.60;;
35961;SDS011;22044;48.298;10.008;2023-09-19T01:09:06;3.97;;;2.70;;
35961;SDS011;22044;48.298;10.008;2023-09-19T01:11:53;6.07;;;2.70;;
35961;SDS011;22044;48.298;10.008;2023-09-19T01:14:48;4.70;;;3.03;;
35961;SDS011;22044;48.298;10.008;2023-09-19T01:17:42;3.10;;;2.63;;
35961;SDS011;22044;48.298;10.008;2023-09-19T01:20:37;7.73;;;3.30;;
35961;SDS011;22044;48.298;10.008;2023-09-19T01:23:29;3.67;;;2.53;;
35961;SDS011;22044;48.298;10.008;2023-09-19T01:26:30;5.30;;;3.40;;
35961;SDS011;22044;48.298;10.008;2023-09-19T01:29:26;3.03;;;2.40;;
35961;SDS011;22044;48.298;10.008;2023-09-19T01:32:24;3.87;;;2.43;;
35961;SDS011;22044;48.298;10.008;2023-09-19T01:35:11;4.43;;;2.90;;
35961;SDS011;22044;48.298;10.008;2023-09-19T01:37:57;3.33;;;2.43;;
35961;SDS011;22044;48.298;10.008;2023-09-19T01:40:43;3.20;;;2.70;;
35961;SDS011;22044;48.298;10.008;2023-09-19T01:43:42;3.53;;;2.60;;
35961;SDS011;22044;48.298;10.008;2023-09-19T01:46:30;3.67;;;2.67;;
35961;SDS011;22044;48.298;10.008;2023-09-19T01:49:25;3.80;;;2.33;;
35961;SDS011;22044;48.298;10.008;2023-09-19T01:52:18;3.45;;;2.50;;
35961;SDS011;22044;48.298;10.008;2023-09-19T01:55:07;3.33;;;2.50;;
35961;SDS011;22044;48.298;10.008;2023-09-19T01:58:00;2.63;;;2.13;;
35961;SDS011;22044;48.298;10.008;2023-09-19T02:00:52;3.83;;;2.30;;
35961;SDS011;22044;48.298;10.008;2023-09-19T02:03:39;3.77;;;2.33;;
35961;SDS011;22044;48.298;10.008;2023-09-19T02:06:30;4.53;;;2.50;;
35961;SDS011;22044;48.298;10.008;2023-09-19T02:09:18;2.33;;;2.13;;
35961;SDS011;22044;48.298;10.008;2023-09-19T02:12:04;6.00;;;2.30;;
35961;SDS011;22044;48.298;10.008;2023-09-19T02:14:50;3.10;;;2.30;;
35961;SDS011;22044;48.298;10.008;2023-09-19T02:17:36;3.53;;;2.60;;
35961;SDS011;22044;48.298;10.008;2023-09-19T02:20:23;2.77;;;2.17;;
35961;SDS011;22044;48.298;10.008;2023-09-19T02:23:11;2.87;;;2.30;;
35961;SDS011;22044;48.298;10.008;2023-09-19T02:25:59;3.23;;;2.40;;
35961;SDS011;22044;48.298;10.008;2023-09-19T02:28:45;2.63;;;2.20;;
35961;SDS011;22044;48.298;10.008;2023-09-19T02:31:31;5.10;;;2.67;;
35961;SDS011;22044;48.298;10.008;2023-09-19T02:34:16;3.33;;;2.13;;
35961;SDS011;22044;48.298;10.008;2023-09-19T02:37:03;3.67;;;2.50;;
35961;SDS011;22044;48.298;10.008;2023-09-19T02:39:51;3.20;;;2.43;;
35961;SDS011;22044;48.298;10.008;2023-09-19T02:42:36;5.40;;;2.23;;
35961;SDS011;22044;48.298;10.008;2023-09-19T02:45:22;3.97;;;2.97;;
35961;SDS011;22044;48.298;10.008;2023-09-19T02:48:08;5.63;;;2.50;;
35961;SDS011;22044;48.298;10.008;2023-09-19T02:50:55;4.43;;;2.20;;
35961;SDS011;22044;48.298;10.008;2023-09-19T02:53:41;4.27;;;2.50;;
35961;SDS011;22044;48.298;10.008;2023-09-19T02:56:28;4.47;;;2.70;;
35961;SDS011;22044;48.298;10.008;2023-09-19T02:59:15;2.67;;;2.47;;
35961;SDS011;22044;48.298;10.008;2023-09-19T03:02:00;6.73;;;2.73;;
35961;SDS011;22044;48.298;10.008;2023-09-19T03:04:47;4.87;;;2.33;;
35961;SDS011;22044;48.298;10.008;2023-09-19T03:07:35;3.73;;;2.50;;
35961;SDS011;22044;48.298;10.008;2023-09-19T03:10:22;3.83;;;2.53;;
35961;SDS011;22044;48.298;10.008;2023-09-19T03:13:10;6.37;;;2.23;;
35961;SDS011;22044;48.298;10.008;2023-09-19T03:15:56;3.20;;;2.20;;
35961;SDS011;22044;48.298;10.008;2023-09-19T03:18:44;4.77;;;1.90;;
35961;SDS011;22044;48.298;10.008;2023-09-19T03:21:31;3.00;;;2.33;;
35961;SDS011;22044;48.298;10.008;2023-09-19T03:24:17;4.13;;;2.47;;
35961;SDS011;22044;48.298;10.008;2023-09-19T03:27:02;4.37;;;2.20;;
35961;SDS011;22044;48.298;10.008;2023-09-19T03:29:50;5.10;;;2.20;;
35961;SDS011;22044;48.298;10.008;2023-09-19T03:32:37;2.97;;;2.20;;
35961;SDS011;22044;48.298;10.008;2023-09-19T03:35:27;4.07;;;2.40;;
35961;SDS011;22044;48.298;10.008;2023-09-19T03:38:13;3.60;;;2.20;;
35961;SDS011;22044;48.298;10.008;2023-09-19T03:40:59;2.87;;;2.17;;
35961;SDS011;22044;48.298;10.008;2023-09-19T03:43:45;4.30;;;2.20;;
35961;SDS011;22044;48.298;10.008;2023-09-19T03:46:35;3.70;;;2.10;;
35961;SDS011;22044;48.298;10.008;2023-09-19T03:49:20;5.73;;;2.60;;
35961;SDS011;22044;48.298;10.008;2023-09-19T03:52:06;3.63;;;2.50;;
35961;SDS011;22044;48.298;10.008;2023-09-19T03:54:52;2.97;;;2.20;;
35961;SDS011;22044;48.298;10.008;2023-09-19T03:57:38;5.43;;;2.23;;
35961;SDS011;22044;48.298;10.008;2023-09-19T04:00:24;5.80;;;2.40;;
35961;SDS011;22044;48.298;10.008;2023-09-19T04:03:12;3.20;;;2.30;;
35961;SDS011;22044;48.298;10.008;2023-09-19T04:06:03;2.57;;;2.00;;
35961;SDS011;22044;48.298;10.008;2023-09-19T04:08:50;2.20;;;2.00;;
35961;SDS011;22044;48.298;10.008;2023-09-19T04:11:35;4.57;;;2.00;;
35961;SDS011;22044;48.298;10.008;2023-09-19T04:14:21;3.60;;;1.97;;
35961;SDS011;22044;48.298;10.008;2023-09-19T04:17:07;3.53;;;2.40;;
35961;SDS011;22044;48.298;10.008;2023-09-19T04:19:55;2.67;;;2.30;;
35961;SDS011;22044;48.298;10.008;2023-09-19T04:22:41;5.43;;;2.40;;
35961;SDS011;22044;48.298;10.008;2023-09-19T04:25:26;3.50;;;2.00;;
35961;SDS011;22044;48.298;10.008;2023-09-19T04:28:13;2.70;;;1.83;;
35961;SDS011;22044;48.298;10.008;2023-09-19T04:30:59;2.80;;;2.00;;
35961;SDS011;22044;48.298;10.008;2023-09-19T04:33:45;3.40;;;1.80;;
35961;SDS011;22044;48.298;10.008;2023-09-19T04:36:32;4.73;;;2.30;;
35961;SDS011;22044;48.298;10.008;2023-09-19T04:39:20;3.50;;;1.97;;
35961;SDS011;22044;48.298;10.008;2023-09-19T04:42:09;2.40;;;1.93;;
35961;SDS011;22044;48.298;10.008;2023-09-19T04:44:58;3.30;;;1.73;;
35961;SDS011;22044;48.298;10.008;2023-09-19T04:47:44;3.00;;;1.97;;
35961;SDS011;22044;48.298;10.008;2023-09-19T04:50:30;1.90;;;1.60;;
35961;SDS011;22044;48.298;10.008;2023-09-19T04:53:17;4.80;;;1.87;;
35961;SDS011;22044;48.298;10.008;2023-09-19T04:56:04;3.47;;;2.33;;
35961;SDS011;22044;48.298;10.008;2023-09-19T04:58:51;2.73;;;2.00;;
35961;SDS011;22044;48.298;10.008;2023-09-19T05:01:37;1.63;;;1.50;;
35961;SDS011;22044;48.298;10.008;2023-09-19T05:04:23;6.67;;;2.03;;
35961;SDS011;22044;48.298;10.008;2023-09-19T05:07:08;1.90;;;1.63;;
35961;SDS011;22044;48.298;10.008;2023-09-19T05:09:56;2.90;;;1.90;;
35961;SDS011;22044;48.298;10.008;2023-09-19T05:12:42;4.50;;;1.70;;
35961;SDS011;22044;48.298;10.008;2023-09-19T05:15:30;4.07;;;1.60;;
35961;SDS011;22044;48.298;10.008;2023-09-19T05:18:16;3.67;;;1.60;;
35961;SDS011;22044;48.298;10.008;2023-09-19T05:21:02;3.33;;;1.90;;
35961;SDS011;22044;48.298;10.008;2023-09-19T05:23:47;2.97;;;1.80;;
35961;SDS011;22044;48.298;10.008;2023-09-19T05:26:35;3.50;;;1.50;;
35961;SDS011;22044;48.298;10.008;2023-09-19T05:29:20;2.70;;;1.90;;
35961;SDS011;22044;48.298;10.008;2023-09-19T05:32:06;4.27;;;1.70;;
35961;SDS011;22044;48.298;10.008;2023-09-19T05:34:52;3.17;;;1.60;;
35961;SDS011;22044;48.298;10.008;2023-09-19T05:37:39;6.30;;;1.87;;
35961;SDS011;22044;48.298;10.008;2023-09-19T05:40:26;3.37;;;1.60;;
35961;SDS011;22044;48.298;10.008;2023-09-19T05:43:13;1.67;;;1.50;;
35961;SDS011;22044;48.298;10.008;2023-09-19T05:45:59;3.50;;;1.60;;
35961;SDS011;22044;48.298;10.008;2023-09-19T05:48:45;3.53;;;1.60;;
35961;SDS011;22044;48.298;10.008;2023-09-19T05:51:34;2.07;;;1.60;;
35961;SDS011;22044;48.298;10.008;2023-09-19T05:54:19;2.27;;;1.50;;
35961;SDS011;22044;48.298;10.008;2023-09-19T05:57:05;2.63;;;1.27;;
35961;SDS011;22044;48.298;10.008;2023-09-19T05:59:53;4.47;;;1.93;;
35961;SDS011;22044;48.298;10.008;2023-09-19T06:02:39;2.57;;;1.50;;
35961;SDS011;22044;48.298;10.008;2023-09-19T06:05:25;4.30;;;1.70;;
35961;SDS011;22044;48.298;10.008;2023-09-19T06:08:14;3.20;;;1.80;;
35961;SDS011;22044;48.298;10.008;2023-09-19T06:10:59;2.70;;;1.60;;
35961;SDS011;22044;48.298;10.008;2023-09-19T11:23:40;2.05;;;1.17;;
35961;SDS011;22044;48.298;10.008;2023-09-19T11:26:39;2.10;;;1.17;;
35961;SDS011;22044;48.298;10.008;2023-09-19T11:29:31;1.60;;;1.17;;
35961;SDS011;22044;48.298;10.008;2023-09-19T11:32:17;2.40;;;1.48;;
35961;SDS011;22044;48.298;10.008;2023-09-19T11:36:00;1.27;;;1.17;;
35961;SDS011;22044;48.298;10.008;2023-09-19T11:39:00;2.88;;;1.40;;
35961;SDS011;22044;48.298;10.008;2023-09-19T11:41:52;1.30;;;1.20;;
35961;SDS011;22044;48.298;10.008;2023-09-19T11:44:40;1.23;;;1.10;;
35961;SDS011;22044;48.298;10.008;2023-09-19T11:47:26;1.52;;;1.30;;
35961;SDS011;22044;48.298;10.008;2023-09-19T11:50:16;2.15;;;1.10;;
35961;SDS011;22044;48.298;10.008;2023-09-19T11:53:04;1.88;;;1.10;;
35961;SDS011;22044;48.298;10.008;2023-09-19T11:55:52;1.80;;;1.30;;
35961;SDS011;22044;48.298;10.008;2023-09-19T11:58:37;2.05;;;1.40;;
35961;SDS011;22044;48.298;10.008;2023-09-19T12:01:29;1.83;;;1.10;;
35961;SDS011;22044;48.298;10.008;2023-09-19T12:04:17;2.55;;;1.38;;
35961;SDS011;22044;48.298;10.008;2023-09-19T12:07:08;1.33;;;1.10;;
35961;SDS011;22044;48.298;10.008;2023-09-19T12:10:02;2.60;;;1.38;;
35961;SDS011;22044;48.298;10.008;2023-09-19T12:12:51;1.45;;;1.30;;
35961;SDS011;22044;48.298;10.008;2023-09-19T12:15:40;1.30;;;1.20;;
35961;SDS011;22044;48.298;10.008;2023-09-19T12:18:29;4.25;;;1.05;;
35961;SDS011;22044;48.298;10.008;2023-09-19T12:21:24;1.60;;;1.20;;
35961;SDS011;22044;48.298;10.008;2023-09-19T12:24:12;1.38;;;1.27;;
35961;SDS011;22044;48.298;10.008;2023-09-19T12:27:00;1.42;;;1.27;;
35961;SDS011;22044;48.298;10.008;2023-09-19T12:29:49;2.00;;;1.30;;
35961;SDS011;22044;48.298;10.008;2023-09-19T12:32:39;1.85;;;1.17;;
35961;SDS011;22044;48.298;10.008;2023-09-19T12:35:29;1.63;;;1.30;;
35961;SDS011;22044;48.298;10.008;2023-09-19T12:38:27;1.90;;;1.40;;
35961;SDS011;22044;48.298;10.008;2023-09-19T12:41:16;2.35;;;1.20;;
35961;SDS011;22044;48.298;10.008;2023-09-19T12:44:02;1.20;;;1.08;;
35961;SDS011;22044;48.298;10.008;2023-09-19T12:46:54;1.60;;;1.17;;
35961;SDS011;22044;48.298;10.008;2023-09-19T12:53:01;1.45;;;1.35;;
35961;SDS011;22044;48.298;10.008;2023-09-19T12:55:46;1.88;;;1.30;;
35961;SDS011;22044;48.298;10.008;2023-09-19T12:58:49;1.92;;;1.33;;
35961;SDS011;22044;48.298;10.008;2023-09-19T13:01:37;1.88;;;1.48;;
35961;SDS011;22044;48.298;10.008;2023-09-19T13:04:28;2.92;;;1.40;;
35961;SDS011;22044;48.298;10.008;2023-09-19T13:10:29;4.30;;;1.27;;
35961;SDS011;22044;48.298;10.008;2023-09-19T13:13:22;1.90;;;1.45;;
35961;SDS011;22044;48.298;10.008;2023-09-19T13:16:11;3.10;;;1.13;;
35961;SDS011;22044;48.298;10.008;2023-09-19T13:19:03;1.85;;;1.20;;
35961;SDS011;22044;48.298;10.008;2023-09-19T13:21:50;2.33;;;1.38;;
35961;SDS011;22044;48.298;10.008;2023-09-19T13:24:38;1.45;;;1.15;;
35961;SDS011;22044;48.298;10.008;2023-09-19T13:27:24;1.17;;;1.00;;
35961;SDS011;22044;48.298;10.008;2023-09-19T13:30:11;3.13;;;1.38;;
35961;SDS011;22044;48.298;10.008;2023-09-19T13:33:06;1.10;;;1.00;;
35961;SDS011;22044;48.298;10.008;2023-09-19T13:35:54;3.08;;;1.40;;
35961;SDS011;22044;48.298;10.008;2023-09-19T13:38:42;1.95;;;1.38;;
35961;SDS011;22044;48.298;10.008;2023-09-19T13:41:27;1.92;;;1.08;;
35961;SDS011;22044;48.298;10.008;2023-09-19T13:44:16;1.70;;;1.35;;
35961;SDS011;22044;48.298;10.008;2023-09-19T13:47:01;3.42;;;1.60;;
35961;SDS011;22044;48.298;10.008;2023-09-19T13:49:56;1.75;;;1.30;;
35961;SDS011;22044;48.298;10.008;2023-09-19T13:52:41;1.60;;;1.50;;
35961;SDS011;22044;48.298;10.008;2023-09-19T13:55:29;2.75;;;1.30;;
35961;SDS011;22044;48.298;10.008;2023-09-19T13:58:15;2.17;;;1.60;;
35961;SDS011;22044;48.298;10.008;2023-09-19T14:01:00;1.30;;;1.10;;
35961;SDS011;22044;48.298;10.008;2023-09-19T14:03:47;3.20;;;1.42;;
35961;SDS011;22044;48.298;10.008;2023-09-19T14:06:33;2.00;;;1.20;;
35961;SDS011;22044;48.298;10.008;2023-09-19T14:09:21;1.55;;;1.30;;
35961;SDS011;22044;48.298;10.008;2023-09-19T14:12:09;3.17;;;1.23;;
35961;SDS011;22044;48.298;10.008;2023-09-19T14:14:55;1.92;;;1.35;;
35961;SDS011;22044;48.298;10.008;2023-09-19T14:17:41;1.60;;;1.40;;
35961;SDS011;22044;48.298;10.008;2023-09-19T14:20:28;2.20;;;1.20;;
35961;SDS011;22044;48.298;10.008;2023-09-19T14:23:14;2.35;;;1.63;;
35961;SDS011;22044;48.298;10.008;2023-09-19T14:26:00;1.20;;;1.10;;
35961;SDS011;22044;48.298;10.008;2023-09-19T14:28:47;3.08;;;1.30;;
35961;SDS011;22044;48.298;10.008;2023-09-19T14:31:32;1.85;;;1.20;;
35961;SDS011;22044;48.298;10.008;2023-09-19T14:34:18;1.88;;;1.17;;
35961;SDS011;22044;48.298;10.008;2023-09-19T14:37:04;1.70;;;1.48;;
35961;SDS011;22044;48.298;10.008;2023-09-19T14:39:50;1.55;;;1.40;;
35961;SDS011;22044;48.298;10.008;2023-09-19T14:42:38;5.43;;;1.65;;
35961;SDS011;22044;48.298;10.008;2023-09-19T14:45:25;1.73;;;1.40;;
35961;SDS011;22044;48.298;10.008;2023-09-19T14:48:11;2.38;;;1.30;;
35961;SDS011;22044;48.298;10.008;2023-09-19T14:51:01;2.05;;;1.33;;
35961;SDS011;22044;48.298;10.008;2023-09-19T14:53:47;3.53;;;1.23;;
35961;SDS011;22044;48.298;10.008;2023-09-19T14:56:33;3.67;;;1.35;;
35961;SDS011;22044;48.298;10.008;2023-09-19T14:59:19;1.98;;;1.38;;
35961;SDS011;22044;48.298;10.008;2023-09-19T15:02:06;2.13;;;1.40;;
35961;SDS011;22044;48.298;10.008;2023-09-19T15:04:52;1.65;;;1.15;;
35961;SDS011;22044;48.298;10.008;2023-09-19T15:07:37;2.42;;;1.23;;
35961;SDS011;22044;48.298;10.008;2023-09-19T15:10:24;3.28;;;1.35;;
35961;SDS011;22044;48.298;10.008;2023-09-19T15:13:09;1.73;;;1.40;;
35961;SDS011;22044;48.298;10.008;2023-09-19T15:15:58;3.13;;;1.40;;
35961;SDS011;22044;48.298;10.008;2023-09-19T15:18:46;1.73;;;1.30;;
35961;SDS011;22044;48.298;10.008;2023-09-19T15:21:32;2.40;;;1.30;;
35961;SDS011;22044;48.298;10.008;2023-09-19T15:24:17;5.75;;;1.10;;
35961;SDS011;22044;48.298;10.008;2023-09-19T15:27:04;1.30;;;1.10;;
35961;SDS011;22044;48.298;10.008;2023-09-19T15:29:49;3.17;;;1.30;;
35961;SDS011;22044;48.298;10.008;2023-09-19T15:32:35;2.65;;;1.27;;
35961;SDS011;22044;48.298;10.008;2023-09-19T15:35:22;3.17;;;1.60;;
35961;SDS011;22044;48.298;10.008;2023-09-19T15:38:09;3.40;;;1.35;;
35961;SDS011;22044;48.298;10.008;2023-09-19T15:40:56;1.52;;;1.30;;
35961;SDS011;22044;48.298;10.008;2023-09-19T15:43:41;2.08;;;1.33;;
35961;SDS011;22044;48.298;10.008;2023-09-19T15:46:27;1.55;;;1.45;;
35961;SDS011;22044;48.298;10.008;2023-09-19T15:49:14;2.20;;;1.50;;
35961;SDS011;22044;48.298;10.008;2023-09-19T15:52:00;2.65;;;1.48;;
35961;SDS011;22044;48.298;10.008;2023-09-19T15:54:47;1.48;;;1.15;;
35961;SDS011;22044;48.298;10.008;2023-09-19T15:57:36;1.98;;;1.23;;
35961;SDS011;22044;48.298;10.008;2023-09-19T16:00:22;2.80;;;1.30;;
35961;SDS011;22044;48.298;10.008;2023-09-19T16:03:07;2.38;;;1.38;;
35961;SDS011;22044;48.298;10.008;2023-09-19T16:05:53;3.03;;;1.20;;
35961;SDS011;22044;48.298;10.008;2023-09-19T16:08:40;4.45;;;1.42;;
35961;SDS011;22044;48.298;10.008;2023-09-19T16:11:26;3.63;;;1.45;;
35961;SDS011;22044;48.298;10.008;2023-09-19T16:14:12;1.75;;;1.10;;
35961;SDS011;22044;48.298;10.008;2023-09-19T16:16:59;1.85;;;1.40;;
35961;SDS011;22044;48.298;10.008;2023-09-19T16:19:46;1.63;;;1.30;;
35961;SDS011;22044;48.298;10.008;2023-09-19T16:22:31;2.90;;;1.52;;
35961;SDS011;22044;48.298;10.008;2023-09-19T16:25:19;1.60;;;1.35;;
35961;SDS011;22044;48.298;10.008;2023-09-19T16:28:05;2.30;;;1.10;;
35961;SDS011;22044;48.298;10.008;2023-09-19T16:30:50;2.65;;;1.20;;
35961;SDS011;22044;48.298;10.008;2023-09-19T16:33:37;2.00;;;1.38;;
35961;SDS011;22044;48.298;10.008;2023-09-19T16:36:24;2.78;;;1.50;;
35961;SDS011;22044;48.298;10.008;2023-09-19T16:39:11;2.00;;;1.30;;
35961;SDS011;22044;48.298;10.008;2023-09-19T16:41:57;2.80;;;1.15;;
35961;SDS011;22044;48.298;10.008;2023-09-19T16:44:43;2.95;;;1.40;;
35961;SDS011;22044;48.298;10.008;2023-09-19T16:47:29;2.10;;;1.35;;
35961;SDS011;22044;48.298;10.008;2023-09-19T16:50:14;3.22;;;1.50;;
35961;SDS011;22044;48.298;10.008;2023-09-19T16:53:00;2.20;;;1.60;;
35961;SDS011;22044;48.298;10.008;2023-09-19T16:55:46;1.80;;;1.27;;
35961;SDS011;22044;48.298;10.008;2023-09-19T16:58:34;1.55;;;1.40;;
35961;SDS011;22044;48.298;10.008;2023-09-19T17:01:20;2.15;;;1.30;;
35961;SDS011;22044;48.298;10.008;2023-09-19T17:04:08;3.75;;;1.30;;
35961;SDS011;22044;48.298;10.008;2023-09-19T17:06:53;2.30;;;1.35;;
35961;SDS011;22044;48.298;10.008;2023-09-19T17:09:39;2.13;;;1.65;;
35961;SDS011;22044;48.298;10.008;2023-09-19T17:12:25;1.83;;;1.10;;
35961;SDS011;22044;48.298;10.008;2023-09-19T17:15:13;1.23;;;1.13;;
35961;SDS011;22044;48.298;10.008;2023-09-19T17:17:59;1.95;;;1.30;;
35961;SDS011;22044;48.298;10.008;2023-09-19T17:20:44;2.63;;;1.45;;
35961;SDS011;22044;48.298;10.008;2023-09-19T17:23:30;3.63;;;1.75;;
35961;SDS011;22044;48.298;10.008;2023-09-19T17:26:17;3.60;;;1.50;;
35961;SDS011;22044;48.298;10.008;2023-09-19T17:29:04;2.10;;;1.38;;
35961;SDS011;22044;48.298;10.008;2023-09-19T17:31:53;3.70;;;1.77;;
35961;SDS011;22044;48.298;10.008;2023-09-19T17:34:38;1.40;;;1.25;;
35961;SDS011;22044;48.298;10.008;2023-09-19T17:37:24;3.42;;;1.40;;
35961;SDS011;22044;48.298;10.008;2023-09-19T17:40:10;2.75;;;1.33;;
35961;SDS011;22044;48.298;10.008;2023-09-19T17:42:57;4.90;;;1.60;;
35961;SDS011;22044;48.298;10.008;2023-09-19T17:45:42;2.85;;;1.60;;
35961;SDS011;22044;48.298;10.008;2023-09-19T17:48:31;1.70;;;1.40;;
35961;SDS011;22044;48.298;10.008;2023-09-19T17:51:16;1.90;;;1.42;;
35961;SDS011;22044;48.298;10.008;2023-09-19T17:54:03;3.50;;;1.50;;
35961;SDS011;22044;48.298;10.008;2023-09-19T17:56:49;2.27;;;1.63;;
35961;SDS011;22044;48.298;10.008;2023-09-19T17:59:34;2.75;;;1.60;;
35961;SDS011;22044;48.298;10.008;2023-09-19T18:02:20;2.50;;;1.63;;
35961;SDS011;22044;48.298;10.008;2023-09-19T18:05:09;2.25;;;1.45;;
35961;SDS011;22044;48.298;10.008;2023-09-19T18:07:59;3.70;;;1.40;;
35961;SDS011;22044;48.298;10.008;2023-09-19T18:10:45;3.45;;;1.45;;
35961;SDS011;22044;48.298;10.008;2023-09-19T18:13:31;1.48;;;1.20;;
35961;SDS011;22044;48.298;10.008;2023-09-19T18:16:16;1.65;;;1.40;;
35961;SDS011;22044;48.298;10.008;2023-09-19T18:19:03;2.78;;;1.38;;
35961;SDS011;22044;48.298;10.008;2023-09-19T18:21:49;2.10;;;1.35;;
35961;SDS011;22044;48.298;10.008;2023-09-19T18:24:36;2.90;;;1.25;;
35961;SDS011;22044;48.298;10.008;2023-09-19T18:27:22;2.60;;;1.67;;
35961;SDS011;22044;48.298;10.008;2023-09-19T18:30:09;2.30;;;1.40;;
35961;SDS011;22044;48.298;10.008;2023-09-19T18:32:57;2.58;;;1.50;;
35961;SDS011;22044;48.298;10.008;2023-09-19T18:35:45;5.63;;;1.75;;
35961;SDS011;22044;48.298;10.008;2023-09-19T18:38:34;1.77;;;1.58;;
35961;SDS011;22044;48.298;10.008;2023-09-19T18:41:22;3.17;;;2.15;;
35961;SDS011;22044;48.298;10.008;2023-09-19T18:44:08;5.45;;;2.15;;
35961;SDS011;22044;48.298;10.008;2023-09-19T18:46:54;3.20;;;2.20;;
35961;SDS011;22044;48.298;10.008;2023-09-19T18:49:40;2.83;;;2.08;;
35961;SDS011;22044;48.298;10.008;2023-09-19T18:52:27;2.72;;;2.05;;
35961;SDS011;22044;48.298;10.008;2023-09-19T18:55:14;3.03;;;1.95;;
35961;SDS011;22044;48.298;10.008;2023-09-19T18:58:01;3.15;;;1.92;;
35961;SDS011;22044;48.298;10.008;2023-09-19T19:00:47;3.58;;;2.00;;
35961;SDS011;22044;48.298;10.008;2023-09-19T19:03:34;4.00;;;1.88;;
35961;SDS011;22044;48.298;10.008;2023-09-19T19:06:20;5.15;;;2.10;;
35961;SDS011;22044;48.298;10.008;2023-09-19T19:09:05;3.40;;;1.93;;
35961;SDS011;22044;48.298;10.008;2023-09-19T19:11:56;3.03;;;2.00;;
35961;SDS011;22044;48.298;10.008;2023-09-19T19:14:41;3.60;;;2.00;;
35961;SDS011;22044;48.298;10.008;2023-09-19T19:17:32;3.83;;;2.03;;
35961;SDS011;22044;48.298;10.008;2023-09-19T19:20:18;6.60;;;2.20;;
35961;SDS011;22044;48.298;10.008;2023-09-19T19:23:07;3.23;;;2.10;;
35961;SDS011;22044;48.298;10.008;2023-09-19T19:25:53;2.97;;;2.23;;
35961;SDS011;22044;48.298;10.008;2023-09-19T19:28:42;3.47;;;2.20;;
35961;SDS011;22044;48.298;10.008;2023-09-19T19:31:29;2.93;;;1.90;;
35961;SDS011;22044;48.298;10.008;2023-09-19T19:34:17;3.90;;;2.20;;
35961;SDS011;22044;48.298;10.008;2023-09-19T19:37:03;4.07;;;2.27;;
35961;SDS011;22044;48.298;10.008;2023-09-19T19:39:49;3.90;;;2.00;;
35961;SDS011;22044;48.298;10.008;2023-09-19T19:42:35;3.57;;;2.30;;
35961;SDS011;22044;48.298;10.008;2023-09-19T19:45:22;3.90;;;2.20;;
35961;SDS011;22044;48.298;10.008;2023-09-19T19:48:08;2.87;;;1.87;;
35961;SDS011;22044;48.298;10.008;2023-09-19T19:50:54;3.50;;;2.00;;
35961;SDS011;22044;48.298;10.008;2023-09-19T19:53:39;3.50;;;1.97;;
35961;SDS011;22044;48.298;10.008;2023-09-19T19:56:25;2.47;;;1.80;;
35961;SDS011;22044;48.298;10.008;2023-09-19T19:59:11;3.47;;;2.07;;
35961;SDS011;22044;48.298;10.008;2023-09-19T20:01:59;2.63;;;2.03;;
35961;SDS011;22044;48.298;10.008;2023-09-19T20:04:45;2.13;;;1.90;;
35961;SDS011;22044;48.298;10.008;2023-09-19T20:07:31;2.40;;;1.77;;
35961;SDS011;22044;48.298;10.008;2023-09-19T20:10:17;2.00;;;1.80;;
35961;SDS011;22044;48.298;10.008;2023-09-19T20:13:04;3.10;;;1.87;;
35961;SDS011;22044;48.298;10.008;2023-09-19T20:15:53;3.53;;;1.93;;
35961;SDS011;22044;48.298;10.008;2023-09-19T20:18:40;4.20;;;2.03;;
35961;SDS011;22044;48.298;10.008;2023-09-19T20:21:26;3.63;;;2.37;;
35961;SDS011;22044;48.298;10.008;2023-09-19T20:24:12;2.43;;;1.70;;
35961;SDS011;22044;48.298;10.008;2023-09-19T20:27:03;2.67;;;1.70;;
35961;SDS011;22044;48.298;10.008;2023-09-19T20:29:50;2.87;;;1.90;;
35961;SDS011;22044;48.298;10.008;2023-09-19T20:32:36;3.57;;;2.23;;
35961;SDS011;22044;48.298;10.008;2023-09-19T20:35:23;3.33;;;1.90;;
35961;SDS011;22044;48.298;10.008;2023-09-19T20:38:08;3.20;;;2.00;;
35961;SDS011;22044;48.298;10.008;2023-09-19T20:40:55;2.33;;;1.90;;
35961;SDS011;22044;48.298;10.008;2023-09-19T20:43:41;2.93;;;2.00;;
35961;SDS011;22044;48.298;10.008;2023-09-19T20:46:26;4.83;;;2.20;;
35961;SDS011;22044;48.298;10.008;2023-09-19T20:49:12;4.30;;;2.10;;
35961;SDS011;22044;48.298;10.008;2023-09-19T20:51:59;2.90;;;1.90;;
35961;SDS011;22044;48.298;10.008;2023-09-19T20:54:45;3.50;;;2.03;;
35961;SDS011;22044;48.298;10.008;2023-09-19T20:57:32;2.93;;;2.10;;
35961;SDS011;22044;48.298;10.008;2023-09-19T21:00:18;2.50;;;2.00;;
35961;SDS011;22044;48.298;10.008;2023-09-19T21:03:04;4.80;;;2.23;;
35961;SDS011;22044;48.298;10.008;2023-09-19T21:05:58;4.87;;;2.03;;
35961;SDS011;22044;48.298;10.008;2023-09-19T21:08:46;3.57;;;2.00;;
35961;SDS011;22044;48.298;10.008;2023-09-19T21:11:33;6.50;;;2.07;;
35961;SDS011;22044;48.298;10.008;2023-09-19T21:14:19;2.33;;;2.10;;
35961;SDS011;22044;48.298;10.008;2023-09-19T21:17:04;3.27;;;2.20;;
35961;SDS011;22044;48.298;10.008;2023-09-19T21:19:50;3.10;;;2.07;;
35961;SDS011;22044;48.298;10.008;2023-09-19T21:22:35;3.07;;;2.00;;
35961;SDS011;22044;48.298;10.008;2023-09-19T21:25:22;5.83;;;2.77;;
35961;SDS011;22044;48.298;10.008;2023-09-19T21:28:08;2.60;;;2.30;;
35961;SDS011;22044;48.298;10.008;2023-09-19T21:30:57;2.63;;;2.10;;
35961;SDS011;22044;48.298;10.008;2023-09-19T21:33:44;4.13;;;2.20;;
35961;SDS011;22044;48.298;10.008;2023-09-19T21:36:29;4.90;;;2.13;;
35961;SDS011;22044;48.298;10.008;2023-09-19T21:39:17;2.63;;;2.07;;
35961;SDS011;22044;48.298;10.008;2023-09-19T21:42:04;2.50;;;1.87;;
35961;SDS011;22044;48.298;10.008;2023-09-19T21:44:50;5.37;;;2.40;;
35961;SDS011;22044;48.298;10.008;2023-09-19T21:47:36;2.73;;;2.40;;
35961;SDS011;22044;48.298;10.008;2023-09-19T21:50:22;3.33;;;2.23;;